Hauptseite
METAR-TAF:

METAR-TAF

Flughäfen :

Flughafen Grenchen

Grenchen, Schweiz

Breite: 47-10-53N, Länge: 007-24-59E, Höhe: 430 m

Beobachtung

Neuester Wetterbericht von vor 19 Minuten, um 20:50 UTC
Wind 3 kt aus West
Temperatur -1°C
Luftfeuchtigkeit 100%
Luftdruck 1012 hPa
Sichtweite: 9000 m

METAR: LSZG 162050Z AUTO 27003KT 9000 NCD M01/M01 Q1012

Zeit: 22:09 (21:09 UTC)

Prognose

Neuester Wetterbericht von vor 6 Stunden und 44 Minuten, um 14:25 UTC
Gültige Prognose vom 16 um 15 UTC bis 16 um 24 UTC
Wind 5 kt aus Süd/Südwest
Sichtweite: 9000 m
Zeitweise
vom 16 um 15 UTC bis 16 um 18 UTC
Sichtweite 10 km oder mehr
keine Wolken unter 1500 m und keine Kumulonimbus oder Gewitterwolken
Wahrscheinlichkeit 30%
vom 16 um 20 UTC bis 16 um 24 UTC
Sichtweite: 4500 m
feuchter Dunst

TAF: LSZG 161425Z 1615/1624 21005KT 9000 NSC TEMPO 1615/1618 CAVOK PROB30 1620/1624 4500 BR

Wetterbeobachtungen und Prognosen von mehr als 4000 Flughäfen (METAR und TAF Bericht).

Die verfügbaren Stationen werden durch gelbe und rote Markierungen auf der Karte dargestellt.

Führen Sie die Maus auf sie, um den Namen der Station zu sehen.

Darauf klicken, um die Beobachtung von Wetterbeobachtungen und Prognosen zu sehen.

Um die Karte zu ändern : klicken Sie auf den grünen Tasten mit einem schwarzen Kreuz Zum Vergrößern, auf den grünen Button mit einem Gedankenstrich zu verkleinern, oder auf die grünen Pfeile für benachbarte Karten.


METAR-TAF: